sensor_id;sensor_type;location;lat;lon;timestamp;P1;durP1;ratioP1;P2;durP2;ratioP2
82671;SDS011;72378;52.468;13.432;2024-02-21T00:01:01;16.15;;;3.97;;
82671;SDS011;72378;52.468;13.432;2024-02-21T00:03:27;13.68;;;4.35;;
82671;SDS011;72378;52.468;13.432;2024-02-21T00:05:53;13.13;;;3.72;;
82671;SDS011;72378;52.468;13.432;2024-02-21T00:08:21;12.25;;;3.65;;
82671;SDS011;72378;52.468;13.432;2024-02-21T00:10:47;10.60;;;3.85;;
82671;SDS011;72378;52.468;13.432;2024-02-21T00:13:14;13.45;;;4.07;;
82671;SDS011;72378;52.468;13.432;2024-02-21T00:15:40;13.45;;;4.03;;
82671;SDS011;72378;52.468;13.432;2024-02-21T00:18:07;13.38;;;3.88;;
82671;SDS011;72378;52.468;13.432;2024-02-21T00:20:33;14.52;;;4.00;;
82671;SDS011;72378;52.468;13.432;2024-02-21T00:22:59;12.50;;;3.72;;
82671;SDS011;72378;52.468;13.432;2024-02-21T00:25:27;20.65;;;4.57;;
82671;SDS011;72378;52.468;13.432;2024-02-21T00:27:53;11.40;;;4.05;;
82671;SDS011;72378;52.468;13.432;2024-02-21T00:30:20;19.35;;;5.32;;
82671;SDS011;72378;52.468;13.432;2024-02-21T00:32:46;14.13;;;3.83;;
82671;SDS011;72378;52.468;13.432;2024-02-21T00:35:13;14.48;;;4.45;;
82671;SDS011;72378;52.468;13.432;2024-02-21T00:37:39;14.20;;;4.20;;
82671;SDS011;72378;52.468;13.432;2024-02-21T00:40:06;18.38;;;4.63;;
82671;SDS011;72378;52.468;13.432;2024-02-21T00:42:34;17.20;;;3.95;;
82671;SDS011;72378;52.468;13.432;2024-02-21T00:45:00;16.48;;;4.57;;
82671;SDS011;72378;52.468;13.432;2024-02-21T00:47:26;12.65;;;3.35;;
82671;SDS011;72378;52.468;13.432;2024-02-21T00:49:53;15.63;;;5.07;;
82671;SDS011;72378;52.468;13.432;2024-02-21T00:52:20;11.70;;;4.07;;
82671;SDS011;72378;52.468;13.432;2024-02-21T00:54:46;12.73;;;3.50;;
82671;SDS011;72378;52.468;13.432;2024-02-21T00:57:14;13.32;;;4.22;;
82671;SDS011;72378;52.468;13.432;2024-02-21T00:59:41;12.20;;;4.03;;
82671;SDS011;72378;52.468;13.432;2024-02-21T01:02:08;14.32;;;3.83;;
82671;SDS011;72378;52.468;13.432;2024-02-21T01:04:34;17.13;;;3.70;;
82671;SDS011;72378;52.468;13.432;2024-02-21T01:07:01;14.13;;;4.60;;
82671;SDS011;72378;52.468;13.432;2024-02-21T01:09:28;16.17;;;3.55;;
82671;SDS011;72378;52.468;13.432;2024-02-21T01:11:54;10.27;;;3.13;;
82671;SDS011;72378;52.468;13.432;2024-02-21T01:14:20;14.18;;;4.70;;
82671;SDS011;72378;52.468;13.432;2024-02-21T01:16:48;12.80;;;3.00;;
82671;SDS011;72378;52.468;13.432;2024-02-21T01:19:14;17.92;;;4.07;;
82671;SDS011;72378;52.468;13.432;2024-02-21T01:21:40;14.15;;;3.92;;
82671;SDS011;72378;52.468;13.432;2024-02-21T01:24:07;16.75;;;4.35;;
82671;SDS011;72378;52.468;13.432;2024-02-21T01:26:33;18.02;;;5.20;;
82671;SDS011;72378;52.468;13.432;2024-02-21T01:28:59;16.63;;;4.75;;
82671;SDS011;72378;52.468;13.432;2024-02-21T01:31:26;14.10;;;3.75;;
82671;SDS011;72378;52.468;13.432;2024-02-21T01:33:53;12.98;;;3.83;;
82671;SDS011;72378;52.468;13.432;2024-02-21T01:36:20;13.77;;;3.55;;
82671;SDS011;72378;52.468;13.432;2024-02-21T01:38:47;13.57;;;4.88;;
82671;SDS011;72378;52.468;13.432;2024-02-21T01:41:13;13.32;;;3.20;;
82671;SDS011;72378;52.468;13.432;2024-02-21T01:43:39;14.88;;;3.65;;
82671;SDS011;72378;52.468;13.432;2024-02-21T01:46:05;13.02;;;3.83;;
82671;SDS011;72378;52.468;13.432;2024-02-21T01:48:32;12.93;;;3.72;;
82671;SDS011;72378;52.468;13.432;2024-02-21T01:51:00;16.30;;;4.10;;
82671;SDS011;72378;52.468;13.432;2024-02-21T01:53:30;14.00;;;3.45;;
82671;SDS011;72378;52.468;13.432;2024-02-21T01:56:02;21.85;;;3.70;;
82671;SDS011;72378;52.468;13.432;2024-02-21T01:58:30;10.57;;;3.17;;
82671;SDS011;72378;52.468;13.432;2024-02-21T02:00:58;11.65;;;3.33;;
82671;SDS011;72378;52.468;13.432;2024-02-21T02:03:25;10.82;;;3.35;;
82671;SDS011;72378;52.468;13.432;2024-02-21T02:05:52;12.25;;;3.13;;
82671;SDS011;72378;52.468;13.432;2024-02-21T02:08:19;10.13;;;3.35;;
82671;SDS011;72378;52.468;13.432;2024-02-21T02:10:47;13.20;;;3.20;;
82671;SDS011;72378;52.468;13.432;2024-02-21T02:13:13;8.93;;;3.33;;
82671;SDS011;72378;52.468;13.432;2024-02-21T02:15:40;11.38;;;3.30;;
82671;SDS011;72378;52.468;13.432;2024-02-21T02:20:33;10.93;;;3.50;;
82671;SDS011;72378;52.468;13.432;2024-02-21T02:23:00;14.07;;;3.78;;
82671;SDS011;72378;52.468;13.432;2024-02-21T02:25:34;12.45;;;3.80;;
82671;SDS011;72378;52.468;13.432;2024-02-21T02:28:00;10.60;;;3.53;;
82671;SDS011;72378;52.468;13.432;2024-02-21T02:30:26;14.00;;;3.67;;
82671;SDS011;72378;52.468;13.432;2024-02-21T02:32:53;16.60;;;3.80;;
82671;SDS011;72378;52.468;13.432;2024-02-21T02:35:19;11.90;;;3.75;;
82671;SDS011;72378;52.468;13.432;2024-02-21T02:37:48;16.40;;;3.92;;
82671;SDS011;72378;52.468;13.432;2024-02-21T02:40:15;13.82;;;3.80;;
82671;SDS011;72378;52.468;13.432;2024-02-21T02:42:43;11.02;;;3.28;;
82671;SDS011;72378;52.468;13.432;2024-02-21T02:45:09;13.85;;;3.50;;
82671;SDS011;72378;52.468;13.432;2024-02-21T02:47:36;12.85;;;4.05;;
82671;SDS011;72378;52.468;13.432;2024-02-21T02:50:02;13.20;;;4.00;;
82671;SDS011;72378;52.468;13.432;2024-02-21T02:52:29;11.57;;;4.68;;
82671;SDS011;72378;52.468;13.432;2024-02-21T02:54:55;13.38;;;3.75;;
82671;SDS011;72378;52.468;13.432;2024-02-21T02:57:21;13.18;;;4.00;;
82671;SDS011;72378;52.468;13.432;2024-02-21T02:59:49;14.60;;;4.18;;
82671;SDS011;72378;52.468;13.432;2024-02-21T03:02:16;17.42;;;4.43;;
82671;SDS011;72378;52.468;13.432;2024-02-21T03:04:43;15.77;;;3.92;;
82671;SDS011;72378;52.468;13.432;2024-02-21T03:07:10;16.05;;;4.18;;
82671;SDS011;72378;52.468;13.432;2024-02-21T03:09:37;18.35;;;4.30;;
82671;SDS011;72378;52.468;13.432;2024-02-21T03:12:04;13.00;;;4.32;;
82671;SDS011;72378;52.468;13.432;2024-02-21T03:14:31;14.52;;;3.78;;
82671;SDS011;72378;52.468;13.432;2024-02-21T03:19:25;14.85;;;4.82;;
82671;SDS011;72378;52.468;13.432;2024-02-21T03:21:53;13.18;;;4.57;;
82671;SDS011;72378;52.468;13.432;2024-02-21T03:24:19;12.10;;;4.25;;
82671;SDS011;72378;52.468;13.432;2024-02-21T03:29:13;11.35;;;4.32;;
82671;SDS011;72378;52.468;13.432;2024-02-21T03:31:40;16.73;;;4.72;;
82671;SDS011;72378;52.468;13.432;2024-02-21T03:34:09;14.95;;;5.05;;
82671;SDS011;72378;52.468;13.432;2024-02-21T03:36:36;15.00;;;4.35;;
82671;SDS011;72378;52.468;13.432;2024-02-21T03:39:03;16.80;;;4.45;;
82671;SDS011;72378;52.468;13.432;2024-02-21T03:41:29;12.80;;;4.15;;
82671;SDS011;72378;52.468;13.432;2024-02-21T03:43:55;17.50;;;4.50;;
82671;SDS011;72378;52.468;13.432;2024-02-21T03:46:24;10.73;;;4.47;;
82671;SDS011;72378;52.468;13.432;2024-02-21T03:48:50;16.13;;;5.50;;
82671;SDS011;72378;52.468;13.432;2024-02-21T03:51:18;15.57;;;4.70;;
82671;SDS011;72378;52.468;13.432;2024-02-21T03:53:44;14.25;;;5.22;;
82671;SDS011;72378;52.468;13.432;2024-02-21T03:56:11;18.23;;;4.80;;
82671;SDS011;72378;52.468;13.432;2024-02-21T03:58:37;15.70;;;5.05;;
82671;SDS011;72378;52.468;13.432;2024-02-21T04:01:03;11.85;;;4.53;;
82671;SDS011;72378;52.468;13.432;2024-02-21T04:03:30;13.43;;;4.57;;
82671;SDS011;72378;52.468;13.432;2024-02-21T04:05:56;11.38;;;4.07;;
82671;SDS011;72378;52.468;13.432;2024-02-21T04:08:24;15.20;;;4.70;;
82671;SDS011;72378;52.468;13.432;2024-02-21T04:10:50;18.05;;;5.45;;
82671;SDS011;72378;52.468;13.432;2024-02-21T04:13:17;18.25;;;4.63;;
82671;SDS011;72378;52.468;13.432;2024-02-21T04:15:43;20.17;;;4.88;;
82671;SDS011;72378;52.468;13.432;2024-02-21T04:18:10;19.23;;;4.72;;
82671;SDS011;72378;52.468;13.432;2024-02-21T04:20:36;14.73;;;4.72;;
82671;SDS011;72378;52.468;13.432;2024-02-21T04:23:02;15.27;;;4.22;;
82671;SDS011;72378;52.468;13.432;2024-02-21T04:25:30;15.23;;;4.78;;
82671;SDS011;72378;52.468;13.432;2024-02-21T04:27:57;13.90;;;4.60;;
82671;SDS011;72378;52.468;13.432;2024-02-21T04:30:23;15.27;;;4.80;;
82671;SDS011;72378;52.468;13.432;2024-02-21T04:32:49;13.77;;;4.68;;
82671;SDS011;72378;52.468;13.432;2024-02-21T04:35:16;18.08;;;4.35;;
82671;SDS011;72378;52.468;13.432;2024-02-21T04:37:42;13.45;;;4.90;;
82671;SDS011;72378;52.468;13.432;2024-02-21T04:40:10;13.40;;;4.82;;
82671;SDS011;72378;52.468;13.432;2024-02-21T04:42:38;14.82;;;4.60;;
82671;SDS011;72378;52.468;13.432;2024-02-21T04:45:04;14.30;;;4.80;;
82671;SDS011;72378;52.468;13.432;2024-02-21T04:47:31;15.77;;;4.50;;
82671;SDS011;72378;52.468;13.432;2024-02-21T04:49:58;14.25;;;4.18;;
82671;SDS011;72378;52.468;13.432;2024-02-21T04:52:24;20.20;;;5.55;;
82671;SDS011;72378;52.468;13.432;2024-02-21T04:54:50;14.60;;;4.53;;
82671;SDS011;72378;52.468;13.432;2024-02-21T04:57:16;12.93;;;4.82;;
82671;SDS011;72378;52.468;13.432;2024-02-21T04:59:44;19.13;;;5.05;;
82671;SDS011;72378;52.468;13.432;2024-02-21T05:02:12;17.42;;;5.53;;
82671;SDS011;72378;52.468;13.432;2024-02-21T05:04:38;14.05;;;4.90;;
82671;SDS011;72378;52.468;13.432;2024-02-21T05:07:06;13.05;;;4.30;;
82671;SDS011;72378;52.468;13.432;2024-02-21T05:09:32;13.30;;;4.70;;
82671;SDS011;72378;52.468;13.432;2024-02-21T05:11:59;13.20;;;4.70;;
82671;SDS011;72378;52.468;13.432;2024-02-21T05:14:25;13.13;;;4.55;;
82671;SDS011;72378;52.468;13.432;2024-02-21T05:16:54;16.23;;;4.93;;
82671;SDS011;72378;52.468;13.432;2024-02-21T05:19:21;18.90;;;5.18;;
82671;SDS011;72378;52.468;13.432;2024-02-21T05:21:47;13.65;;;4.95;;
82671;SDS011;72378;52.468;13.432;2024-02-21T05:24:13;15.55;;;5.07;;
82671;SDS011;72378;52.468;13.432;2024-02-21T05:26:40;17.95;;;5.72;;
82671;SDS011;72378;52.468;13.432;2024-02-21T05:29:06;18.52;;;5.35;;
82671;SDS011;72378;52.468;13.432;2024-02-21T05:31:42;15.60;;;5.20;;
82671;SDS011;72378;52.468;13.432;2024-02-21T05:34:22;12.05;;;4.38;;
82671;SDS011;72378;52.468;13.432;2024-02-21T05:36:48;17.52;;;4.85;;
82671;SDS011;72378;52.468;13.432;2024-02-21T05:39:15;15.95;;;4.97;;
82671;SDS011;72378;52.468;13.432;2024-02-21T05:41:42;15.05;;;5.07;;
82671;SDS011;72378;52.468;13.432;2024-02-21T05:44:08;17.40;;;4.35;;
82671;SDS011;72378;52.468;13.432;2024-02-21T05:46:34;12.73;;;4.63;;
82671;SDS011;72378;52.468;13.432;2024-02-21T05:49:01;16.23;;;5.50;;
82671;SDS011;72378;52.468;13.432;2024-02-21T05:51:31;14.57;;;6.00;;
82671;SDS011;72378;52.468;13.432;2024-02-21T05:53:58;19.35;;;5.05;;
82671;SDS011;72378;52.468;13.432;2024-02-21T05:56:25;14.30;;;4.60;;
82671;SDS011;72378;52.468;13.432;2024-02-21T05:58:52;16.75;;;5.10;;
82671;SDS011;72378;52.468;13.432;2024-02-21T06:01:18;16.90;;;5.50;;
82671;SDS011;72378;52.468;13.432;2024-02-21T06:03:46;18.00;;;5.10;;
82671;SDS011;72378;52.468;13.432;2024-02-21T06:06:12;15.50;;;5.75;;
82671;SDS011;72378;52.468;13.432;2024-02-21T06:08:40;18.00;;;5.82;;
82671;SDS011;72378;52.468;13.432;2024-02-21T06:11:07;18.88;;;4.95;;
82671;SDS011;72378;52.468;13.432;2024-02-21T06:13:33;16.27;;;5.22;;
82671;SDS011;72378;52.468;13.432;2024-02-21T06:15:59;15.05;;;5.20;;
82671;SDS011;72378;52.468;13.432;2024-02-21T06:18:26;15.27;;;5.18;;
82671;SDS011;72378;52.468;13.432;2024-02-21T06:20:52;15.82;;;4.82;;
82671;SDS011;72378;52.468;13.432;2024-02-21T06:23:18;16.08;;;4.75;;
82671;SDS011;72378;52.468;13.432;2024-02-21T06:25:46;14.45;;;4.43;;
82671;SDS011;72378;52.468;13.432;2024-02-21T06:28:13;12.10;;;4.57;;
82671;SDS011;72378;52.468;13.432;2024-02-21T06:30:39;18.35;;;4.65;;
82671;SDS011;72378;52.468;13.432;2024-02-21T06:35:33;16.67;;;4.65;;
82671;SDS011;72378;52.468;13.432;2024-02-21T06:37:59;11.82;;;5.03;;
82671;SDS011;72378;52.468;13.432;2024-02-21T06:40:25;19.60;;;5.20;;
82671;SDS011;72378;52.468;13.432;2024-02-21T06:42:53;15.68;;;4.97;;
82671;SDS011;72378;52.468;13.432;2024-02-21T06:45:19;15.32;;;5.18;;
82671;SDS011;72378;52.468;13.432;2024-02-21T06:47:45;14.40;;;4.80;;
82671;SDS011;72378;52.468;13.432;2024-02-21T06:50:12;14.63;;;5.38;;
82671;SDS011;72378;52.468;13.432;2024-02-21T06:52:38;14.77;;;4.88;;
82671;SDS011;72378;52.468;13.432;2024-02-21T06:55:05;15.93;;;5.32;;
82671;SDS011;72378;52.468;13.432;2024-02-21T06:57:31;13.93;;;5.63;;
82671;SDS011;72378;52.468;13.432;2024-02-21T06:59:59;15.40;;;5.13;;
82671;SDS011;72378;52.468;13.432;2024-02-21T07:02:25;12.80;;;5.30;;
82671;SDS011;72378;52.468;13.432;2024-02-21T07:04:51;13.73;;;4.57;;
82671;SDS011;72378;52.468;13.432;2024-02-21T07:07:18;12.00;;;4.43;;
82671;SDS011;72378;52.468;13.432;2024-02-21T07:09:44;14.70;;;5.50;;
82671;SDS011;72378;52.468;13.432;2024-02-21T07:12:13;15.75;;;5.38;;
82671;SDS011;72378;52.468;13.432;2024-02-21T07:14:39;20.42;;;5.15;;
82671;SDS011;72378;52.468;13.432;2024-02-21T07:17:07;17.00;;;4.75;;
82671;SDS011;72378;52.468;13.432;2024-02-21T07:19:33;15.98;;;5.35;;
82671;SDS011;72378;52.468;13.432;2024-02-21T07:22:00;16.63;;;6.00;;
82671;SDS011;72378;52.468;13.432;2024-02-21T07:24:26;14.38;;;4.78;;
82671;SDS011;72378;52.468;13.432;2024-02-21T07:26:53;12.63;;;5.00;;
82671;SDS011;72378;52.468;13.432;2024-02-21T07:29:19;16.75;;;4.85;;
82671;SDS011;72378;52.468;13.432;2024-02-21T07:31:45;14.73;;;5.13;;
82671;SDS011;72378;52.468;13.432;2024-02-21T07:34:15;12.73;;;4.45;;
82671;SDS011;72378;52.468;13.432;2024-02-21T07:36:41;17.52;;;5.47;;
82671;SDS011;72378;52.468;13.432;2024-02-21T07:39:08;17.85;;;4.63;;
82671;SDS011;72378;52.468;13.432;2024-02-21T07:41:34;12.05;;;4.25;;
82671;SDS011;72378;52.468;13.432;2024-02-21T07:44:00;15.60;;;4.60;;
82671;SDS011;72378;52.468;13.432;2024-02-21T07:46:28;13.45;;;4.05;;
82671;SDS011;72378;52.468;13.432;2024-02-21T07:48:54;11.07;;;4.05;;
82671;SDS011;72378;52.468;13.432;2024-02-21T07:51:22;13.80;;;4.57;;
82671;SDS011;72378;52.468;13.432;2024-02-21T07:53:48;12.52;;;4.10;;
82671;SDS011;72378;52.468;13.432;2024-02-21T07:56:15;11.23;;;3.85;;
82671;SDS011;72378;52.468;13.432;2024-02-21T07:58:41;13.73;;;4.47;;
82671;SDS011;72378;52.468;13.432;2024-02-21T08:01:08;13.50;;;4.13;;
82671;SDS011;72378;52.468;13.432;2024-02-21T08:03:35;9.88;;;3.72;;
82671;SDS011;72378;52.468;13.432;2024-02-21T08:06:02;12.88;;;4.60;;
82671;SDS011;72378;52.468;13.432;2024-02-21T08:08:30;11.48;;;3.92;;
82671;SDS011;72378;52.468;13.432;2024-02-21T08:10:56;12.07;;;4.55;;
82671;SDS011;72378;52.468;13.432;2024-02-21T08:13:23;12.43;;;5.05;;
82671;SDS011;72378;52.468;13.432;2024-02-21T08:15:49;14.32;;;4.40;;
82671;SDS011;72378;52.468;13.432;2024-02-21T08:18:16;14.40;;;4.88;;
82671;SDS011;72378;52.468;13.432;2024-02-21T08:20:42;17.13;;;5.43;;
82671;SDS011;72378;52.468;13.432;2024-02-21T08:23:08;13.68;;;5.00;;
82671;SDS011;72378;52.468;13.432;2024-02-21T08:25:36;15.35;;;6.55;;
82671;SDS011;72378;52.468;13.432;2024-02-21T08:28:02;10.80;;;4.32;;
82671;SDS011;72378;52.468;13.432;2024-02-21T08:30:29;13.65;;;5.13;;
82671;SDS011;72378;52.468;13.432;2024-02-21T08:32:55;12.38;;;4.65;;
82671;SDS011;72378;52.468;13.432;2024-02-21T08:35:22;12.38;;;5.30;;
82671;SDS011;72378;52.468;13.432;2024-02-21T08:37:48;11.93;;;5.05;;
82671;SDS011;72378;52.468;13.432;2024-02-21T08:40:15;12.75;;;5.28;;
82671;SDS011;72378;52.468;13.432;2024-02-21T08:42:47;14.73;;;4.85;;
82671;SDS011;72378;52.468;13.432;2024-02-21T08:45:14;13.88;;;4.78;;
82671;SDS011;72378;52.468;13.432;2024-02-21T08:47:40;11.18;;;4.70;;
82671;SDS011;72378;52.468;13.432;2024-02-21T08:50:07;13.45;;;5.20;;
82671;SDS011;72378;52.468;13.432;2024-02-21T08:52:34;17.40;;;5.63;;
82671;SDS011;72378;52.468;13.432;2024-02-21T08:55:01;13.98;;;5.03;;
82671;SDS011;72378;52.468;13.432;2024-02-21T08:57:27;18.25;;;5.60;;
82671;SDS011;72378;52.468;13.432;2024-02-21T08:59:55;13.57;;;4.65;;
82671;SDS011;72378;52.468;13.432;2024-02-21T09:02:21;17.92;;;6.60;;
82671;SDS011;72378;52.468;13.432;2024-02-21T09:04:48;16.77;;;5.70;;
82671;SDS011;72378;52.468;13.432;2024-02-21T09:07:14;16.63;;;5.10;;
82671;SDS011;72378;52.468;13.432;2024-02-21T09:09:40;12.45;;;5.63;;
82671;SDS011;72378;52.468;13.432;2024-02-21T09:12:07;14.57;;;6.63;;
82671;SDS011;72378;52.468;13.432;2024-02-21T09:17:02;15.63;;;6.38;;
82671;SDS011;72378;52.468;13.432;2024-02-21T09:19:28;13.02;;;5.30;;
82671;SDS011;72378;52.468;13.432;2024-02-21T09:21:55;15.40;;;5.32;;
82671;SDS011;72378;52.468;13.432;2024-02-21T09:24:21;17.98;;;6.35;;
82671;SDS011;72378;52.468;13.432;2024-02-21T09:26:47;16.52;;;5.55;;
82671;SDS011;72378;52.468;13.432;2024-02-21T09:29:14;16.35;;;5.43;;
82671;SDS011;72378;52.468;13.432;2024-02-21T09:34:09;11.80;;;4.53;;
82671;SDS011;72378;52.468;13.432;2024-02-21T09:36:36;14.65;;;5.20;;
82671;SDS011;72378;52.468;13.432;2024-02-21T09:39:03;16.23;;;5.93;;
82671;SDS011;72378;52.468;13.432;2024-02-21T09:41:29;15.32;;;5.53;;
82671;SDS011;72378;52.468;13.432;2024-02-21T09:43:56;12.70;;;5.28;;
82671;SDS011;72378;52.468;13.432;2024-02-21T09:46:24;17.63;;;6.18;;
82671;SDS011;72378;52.468;13.432;2024-02-21T09:49:03;12.18;;;5.45;;
82671;SDS011;72378;52.468;13.432;2024-02-21T09:51:41;14.18;;;5.65;;
82671;SDS011;72378;52.468;13.432;2024-02-21T09:54:09;19.60;;;6.53;;
82671;SDS011;72378;52.468;13.432;2024-02-21T09:56:35;16.55;;;6.25;;
82671;SDS011;72378;52.468;13.432;2024-02-21T09:59:02;15.75;;;5.50;;
82671;SDS011;72378;52.468;13.432;2024-02-21T10:01:29;14.48;;;6.18;;
82671;SDS011;72378;52.468;13.432;2024-02-21T10:03:56;12.50;;;6.45;;
82671;SDS011;72378;52.468;13.432;2024-02-21T10:06:23;12.55;;;5.70;;
82671;SDS011;72378;52.468;13.432;2024-02-21T10:08:53;14.23;;;5.53;;
82671;SDS011;72378;52.468;13.432;2024-02-21T10:11:22;15.15;;;6.35;;
82671;SDS011;72378;52.468;13.432;2024-02-21T10:13:49;14.88;;;6.30;;
82671;SDS011;72378;52.468;13.432;2024-02-21T10:18:42;15.25;;;6.10;;
82671;SDS011;72378;52.468;13.432;2024-02-21T10:21:08;15.75;;;5.57;;
82671;SDS011;72378;52.468;13.432;2024-02-21T10:23:44;13.23;;;5.30;;
82671;SDS011;72378;52.468;13.432;2024-02-21T10:26:12;14.80;;;5.90;;
82671;SDS011;72378;52.468;13.432;2024-02-21T10:28:38;13.40;;;5.70;;
82671;SDS011;72378;52.468;13.432;2024-02-21T10:31:07;11.63;;;5.53;;
82671;SDS011;72378;52.468;13.432;2024-02-21T10:33:34;13.13;;;5.30;;
82671;SDS011;72378;52.468;13.432;2024-02-21T10:36:07;14.20;;;4.82;;
82671;SDS011;72378;52.468;13.432;2024-02-21T10:38:35;12.00;;;5.05;;
82671;SDS011;72378;52.468;13.432;2024-02-21T10:41:02;13.68;;;5.78;;
82671;SDS011;72378;52.468;13.432;2024-02-21T10:43:32;18.88;;;7.22;;
82671;SDS011;72378;52.468;13.432;2024-02-21T10:46:04;15.02;;;6.55;;
82671;SDS011;72378;52.468;13.432;2024-02-21T10:48:33;21.20;;;6.95;;
82671;SDS011;72378;52.468;13.432;2024-02-21T10:51:09;12.60;;;5.60;;
82671;SDS011;72378;52.468;13.432;2024-02-21T10:53:41;13.82;;;5.57;;
82671;SDS011;72378;52.468;13.432;2024-02-21T10:56:15;13.30;;;5.10;;
82671;SDS011;72378;52.468;13.432;2024-02-21T10:58:49;17.70;;;6.15;;
82671;SDS011;72378;52.468;13.432;2024-02-21T11:01:16;22.30;;;6.00;;
82671;SDS011;72378;52.468;13.432;2024-02-21T11:03:44;12.18;;;5.60;;
82671;SDS011;72378;52.468;13.432;2024-02-21T11:06:12;12.85;;;5.47;;
82671;SDS011;72378;52.468;13.432;2024-02-21T11:08:41;13.40;;;5.25;;
82671;SDS011;72378;52.468;13.432;2024-02-21T11:11:07;11.63;;;5.15;;
82671;SDS011;72378;52.468;13.432;2024-02-21T11:13:35;13.55;;;5.57;;
82671;SDS011;72378;52.468;13.432;2024-02-21T11:16:07;13.57;;;5.30;;
82671;SDS011;72378;52.468;13.432;2024-02-21T11:18:35;12.23;;;5.05;;
82671;SDS011;72378;52.468;13.432;2024-02-21T11:21:01;13.18;;;5.72;;
82671;SDS011;72378;52.468;13.432;2024-02-21T11:23:29;13.93;;;5.50;;
82671;SDS011;72378;52.468;13.432;2024-02-21T11:26:03;12.73;;;5.68;;
82671;SDS011;72378;52.468;13.432;2024-02-21T11:28:30;14.30;;;5.60;;
82671;SDS011;72378;52.468;13.432;2024-02-21T11:31:04;12.50;;;5.20;;
82671;SDS011;72378;52.468;13.432;2024-02-21T11:33:34;13.05;;;4.93;;
82671;SDS011;72378;52.468;13.432;2024-02-21T11:36:00;10.52;;;4.18;;
82671;SDS011;72378;52.468;13.432;2024-02-21T11:38:28;14.20;;;5.55;;
82671;SDS011;72378;52.468;13.432;2024-02-21T11:40:55;12.13;;;5.25;;
82671;SDS011;72378;52.468;13.432;2024-02-21T11:43:21;11.00;;;4.50;;
82671;SDS011;72378;52.468;13.432;2024-02-21T11:45:48;10.75;;;4.13;;
82671;SDS011;72378;52.468;13.432;2024-02-21T11:48:15;10.60;;;4.43;;
82671;SDS011;72378;52.468;13.432;2024-02-21T11:50:42;12.95;;;5.10;;
82671;SDS011;72378;52.468;13.432;2024-02-21T11:53:08;10.55;;;4.18;;
82671;SDS011;72378;52.468;13.432;2024-02-21T11:58:01;9.52;;;4.05;;
82671;SDS011;72378;52.468;13.432;2024-02-21T12:00:28;9.35;;;4.60;;
82671;SDS011;72378;52.468;13.432;2024-02-21T12:02:54;7.50;;;3.60;;
82671;SDS011;72378;52.468;13.432;2024-02-21T12:05:28;11.45;;;3.72;;
82671;SDS011;72378;52.468;13.432;2024-02-21T12:07:54;8.85;;;3.70;;
82671;SDS011;72378;52.468;13.432;2024-02-21T12:10:23;8.40;;;3.70;;
82671;SDS011;72378;52.468;13.432;2024-02-21T12:12:49;8.10;;;3.33;;
82671;SDS011;72378;52.468;13.432;2024-02-21T12:15:17;8.88;;;3.70;;
82671;SDS011;72378;52.468;13.432;2024-02-21T12:17:44;9.70;;;4.40;;
82671;SDS011;72378;52.468;13.432;2024-02-21T12:20:11;8.45;;;3.90;;
82671;SDS011;72378;52.468;13.432;2024-02-21T12:22:38;8.07;;;3.33;;
82671;SDS011;72378;52.468;13.432;2024-02-21T12:25:15;8.18;;;2.85;;
82671;SDS011;72378;52.468;13.432;2024-02-21T12:27:42;8.82;;;3.03;;
82671;SDS011;72378;52.468;13.432;2024-02-21T12:30:09;7.53;;;3.13;;
82671;SDS011;72378;52.468;13.432;2024-02-21T12:32:36;8.10;;;3.35;;
82671;SDS011;72378;52.468;13.432;2024-02-21T12:35:02;6.65;;;2.75;;
82671;SDS011;72378;52.468;13.432;2024-02-21T12:37:29;8.98;;;3.55;;
82671;SDS011;72378;52.468;13.432;2024-02-21T12:39:57;7.57;;;2.90;;
82671;SDS011;72378;52.468;13.432;2024-02-21T12:42:23;6.85;;;2.97;;
82671;SDS011;72378;52.468;13.432;2024-02-21T12:44:50;9.77;;;3.38;;
82671;SDS011;72378;52.468;13.432;2024-02-21T12:47:17;7.95;;;3.28;;
82671;SDS011;72378;52.468;13.432;2024-02-21T12:49:44;9.13;;;3.72;;
82671;SDS011;72378;52.468;13.432;2024-02-21T12:52:11;8.25;;;3.17;;
82671;SDS011;72378;52.468;13.432;2024-02-21T12:54:38;7.80;;;3.17;;
82671;SDS011;72378;52.468;13.432;2024-02-21T12:57:06;7.63;;;2.78;;
82671;SDS011;72378;52.468;13.432;2024-02-21T12:59:32;11.52;;;4.57;;
82671;SDS011;72378;52.468;13.432;2024-02-21T13:01:58;10.30;;;3.13;;
82671;SDS011;72378;52.468;13.432;2024-02-21T13:04:25;8.05;;;3.00;;
82671;SDS011;72378;52.468;13.432;2024-02-21T13:06:51;8.38;;;3.22;;
82671;SDS011;72378;52.468;13.432;2024-02-21T13:09:17;8.30;;;2.92;;
82671;SDS011;72378;52.468;13.432;2024-02-21T13:11:45;10.30;;;3.35;;
82671;SDS011;72378;52.468;13.432;2024-02-21T13:14:12;10.13;;;3.25;;
82671;SDS011;72378;52.468;13.432;2024-02-21T13:16:39;9.05;;;2.88;;
82671;SDS011;72378;52.468;13.432;2024-02-21T13:19:06;10.13;;;3.53;;
82671;SDS011;72378;52.468;13.432;2024-02-21T13:21:33;8.43;;;2.92;;
82671;SDS011;72378;52.468;13.432;2024-02-21T13:23:59;9.82;;;3.83;;
82671;SDS011;72378;52.468;13.432;2024-02-21T13:26:25;13.13;;;3.58;;
82671;SDS011;72378;52.468;13.432;2024-02-21T13:28:52;7.57;;;3.45;;
82671;SDS011;72378;52.468;13.432;2024-02-21T13:33:46;9.35;;;3.70;;
82671;SDS011;72378;52.468;13.432;2024-02-21T13:36:12;8.88;;;3.10;;
82671;SDS011;72378;52.468;13.432;2024-02-21T13:38:39;8.70;;;3.25;;
82671;SDS011;72378;52.468;13.432;2024-02-21T13:41:05;9.05;;;2.95;;
82671;SDS011;72378;52.468;13.432;2024-02-21T13:43:32;12.30;;;3.70;;
82671;SDS011;72378;52.468;13.432;2024-02-21T13:45:59;9.10;;;3.38;;
82671;SDS011;72378;52.468;13.432;2024-02-21T13:48:27;9.82;;;3.20;;
82671;SDS011;72378;52.468;13.432;2024-02-21T13:50:55;11.13;;;4.20;;
82671;SDS011;72378;52.468;13.432;2024-02-21T13:53:21;9.43;;;3.47;;
82671;SDS011;72378;52.468;13.432;2024-02-21T13:55:48;8.00;;;3.40;;
82671;SDS011;72378;52.468;13.432;2024-02-21T13:58:14;7.30;;;2.55;;
82671;SDS011;72378;52.468;13.432;2024-02-21T14:00:41;9.70;;;3.20;;
82671;SDS011;72378;52.468;13.432;2024-02-21T14:03:07;8.07;;;2.75;;
82671;SDS011;72378;52.468;13.432;2024-02-21T14:05:36;7.22;;;3.15;;
82671;SDS011;72378;52.468;13.432;2024-02-21T14:08:02;9.15;;;3.05;;
82671;SDS011;72378;52.468;13.432;2024-02-21T14:10:30;8.38;;;3.38;;
82671;SDS011;72378;52.468;13.432;2024-02-21T14:12:56;9.65;;;2.92;;
82671;SDS011;72378;52.468;13.432;2024-02-21T14:15:23;7.70;;;2.80;;
82671;SDS011;72378;52.468;13.432;2024-02-21T14:17:50;9.00;;;2.97;;
82671;SDS011;72378;52.468;13.432;2024-02-21T14:20:16;10.90;;;3.05;;
82671;SDS011;72378;52.468;13.432;2024-02-21T14:22:43;8.10;;;2.90;;
82671;SDS011;72378;52.468;13.432;2024-02-21T14:25:10;8.68;;;3.47;;
82671;SDS011;72378;52.468;13.432;2024-02-21T14:27:37;10.30;;;3.25;;
82671;SDS011;72378;52.468;13.432;2024-02-21T14:30:04;8.40;;;3.08;;
82671;SDS011;72378;52.468;13.432;2024-02-21T14:32:31;7.70;;;3.03;;
82671;SDS011;72378;52.468;13.432;2024-02-21T14:34:58;9.27;;;3.38;;
82671;SDS011;72378;52.468;13.432;2024-02-21T14:37:24;6.82;;;2.85;;
82671;SDS011;72378;52.468;13.432;2024-02-21T14:39:52;9.82;;;3.33;;
82671;SDS011;72378;52.468;13.432;2024-02-21T14:42:18;11.73;;;3.85;;
82671;SDS011;72378;52.468;13.432;2024-02-21T14:44:44;11.20;;;4.57;;